Time;durP1;ratioP1;P1;durP2;ratioP2;P2;SDS_P1;SDS_P2;PMS_P1;PMS_P2;Temp;Humidity;BMP_temperature;BMP_pressure;BME280_temperature;BME280_humidity;BME280_pressure;Samples;Min_cycle;Max_cycle;Signal;HPM_P1;HPM_P2
2021/07/10 00:02:03;;;;;;;;;20.00;20.00;;;;;-149.00;100.00;66333.84;5100557;27;45344;-78
2021/07/10 00:04:29;;;;;;;;;20.33;20.00;;;;;-149.00;100.00;66333.84;5103072;27;45362;-78
2021/07/10 00:06:56;;;;;;;;;20.00;18.00;;;;;-149.00;100.00;66333.84;5102616;27;45303;-78
2021/07/10 00:09:22;;;;;;;;;18.00;18.00;;;;;-149.00;100.00;66333.84;5102548;27;46385;-78
2021/07/10 00:11:47;;;;;;;;;17.33;17.33;;;;;-149.00;100.00;66333.84;5102712;27;45388;-78
2021/07/10 00:14:13;;;;;;;;;20.67;20.67;;;;;-149.00;100.00;66333.84;5102722;27;45300;-78
2021/07/10 00:16:38;;;;;;;;;17.00;17.00;;;;;-149.00;100.00;66333.84;5102779;27;45398;-79
2021/07/10 00:19:04;;;;;;;;;20.33;19.00;;;;;-149.00;100.00;66333.84;5102616;27;45256;-79
2021/07/10 00:21:29;;;;;;;;;21.33;19.33;;;;;-149.00;100.00;66333.84;5102543;27;45354;-79
2021/07/10 00:23:55;;;;;;;;;18.00;17.00;;;;;-149.00;100.00;66333.84;5102485;27;45326;-78
2021/07/10 00:26:20;;;;;;;;;22.00;21.00;;;;;-149.00;100.00;66333.84;5102580;27;45327;-79
2021/07/10 00:28:46;;;;;;;;;20.00;18.33;;;;;-149.00;100.00;66333.84;5102570;27;46345;-78
2021/07/10 00:31:12;;;;;;;;;22.33;22.33;;;;;-149.00;100.00;66333.84;5102300;27;45406;-79
2021/07/10 00:33:37;;;;;;;;;21.00;20.67;;;;;-149.00;100.00;66333.84;5084083;27;45306;-78
2021/07/10 00:36:03;;;;;;;;;23.00;19.00;;;;;-149.00;100.00;66333.84;5083822;27;47177;-79
2021/07/10 00:38:29;;;;;;;;;18.00;16.00;;;;;-149.00;100.00;66333.84;5101968;27;46035;-78
2021/07/10 00:40:54;;;;;;;;;17.67;16.67;;;;;-149.00;100.00;66333.84;5102453;27;45409;-79
2021/07/10 00:43:20;;;;;;;;;19.00;18.00;;;;;-149.00;100.00;66333.84;5102382;27;46018;-78
2021/07/10 00:45:47;;;;;;;;;18.00;18.00;;;;;-149.00;100.00;66333.84;5102418;27;45431;-78
2021/07/10 00:48:12;;;;;;;;;23.33;18.67;;;;;-149.00;100.00;66333.84;5101915;27;46400;-78
2021/07/10 00:50:38;;;;;;;;;20.67;18.33;;;;;-149.00;100.00;66333.84;5102128;27;45344;-78
2021/07/10 00:53:03;;;;;;;;;16.00;16.00;;;;;-149.00;100.00;66333.84;5101977;27;45317;-78
2021/07/10 00:55:29;;;;;;;;;18.00;17.00;;;;;-149.00;100.00;66333.84;5101798;27;45330;-78
2021/07/10 00:57:55;;;;;;;;;20.00;19.00;;;;;-149.00;100.00;66333.84;5101955;27;46342;-79
2021/07/10 01:00:23;;;;;;;;;18.67;17.33;;;;;-149.00;100.00;66333.84;5101977;27;45206;-79
2021/07/10 01:02:50;;;;;;;;;17.33;16.00;;;;;-149.00;100.00;66333.84;5102148;27;45275;-79
2021/07/10 01:05:22;;;;;;;;;16.67;15.33;;;;;-149.00;100.00;66333.84;5101895;27;45316;-79
2021/07/10 01:07:47;;;;;;;;;20.00;18.67;;;;;-149.00;100.00;66333.84;5101477;27;45277;-79
2021/07/10 01:10:15;;;;;;;;;22.33;22.00;;;;;-149.00;100.00;66333.84;5101833;27;45567;-79
2021/07/10 01:12:42;;;;;;;;;23.33;21.00;;;;;-149.00;100.00;66333.84;5101407;27;45273;-78
2021/07/10 01:15:10;;;;;;;;;23.33;23.00;;;;;-149.00;100.00;66333.84;5100733;27;45475;-78
2021/07/10 01:17:36;;;;;;;;;22.00;18.67;;;;;-149.00;100.00;66333.84;5083035;27;48329;-78
2021/07/10 01:20:12;;;;;;;;;25.67;25.67;;;;;-149.00;100.00;66333.84;5101508;27;45455;-79
2021/07/10 01:22:38;;;;;;;;;25.33;25.33;;;;;-149.00;100.00;66333.84;5101434;27;45310;-78
2021/07/10 01:25:06;;;;;;;;;27.67;25.33;;;;;-149.00;100.00;66333.84;5083061;27;47183;-79
2021/07/10 01:27:32;;;;;;;;;26.00;25.00;;;;;-149.00;100.00;66333.84;5101540;27;45299;-78
2021/07/10 01:29:58;;;;;;;;;31.33;26.67;;;;;-149.00;100.00;66333.84;5082863;27;45324;-78
2021/07/10 01:32:24;;;;;;;;;27.67;27.00;;;;;-149.00;100.00;66333.84;5101630;27;45422;-79
2021/07/10 01:34:50;;;;;;;;;26.00;25.67;;;;;-149.00;100.00;66333.84;5101235;27;45420;-78
2021/07/10 01:37:16;;;;;;;;;26.33;26.33;;;;;-149.00;100.00;66333.84;5100906;27;45322;-78
2021/07/10 01:39:43;;;;;;;;;34.00;32.33;;;;;-149.00;100.00;66333.84;5082916;27;45897;-79
2021/07/10 01:42:10;;;;;;;;;28.33;27.67;;;;;-149.00;100.00;66333.84;5101405;27;45371;-78
2021/07/10 01:44:37;;;;;;;;;29.33;29.33;;;;;-149.00;100.00;66333.84;5101113;27;45382;-78
2021/07/10 01:47:03;;;;;;;;;31.33;29.00;;;;;-149.00;100.00;66333.84;5082619;27;47509;-79
2021/07/10 01:49:29;;;;;;;;;32.33;30.00;;;;;-149.00;100.00;66333.84;5082726;27;45316;-78
2021/07/10 01:51:54;;;;;;;;;26.00;24.33;;;;;-149.00;100.00;66333.84;5101197;27;45337;-79
2021/07/10 01:54:19;;;;;;;;;23.00;21.67;;;;;-149.00;100.00;66333.84;5100935;27;45311;-78
2021/07/10 01:56:45;;;;;;;;;19.00;18.67;;;;;-149.00;100.00;66333.84;5082581;27;47401;-78
2021/07/10 01:59:10;;;;;;;;;22.33;21.00;;;;;-149.00;100.00;66333.84;5082755;27;45949;-78
2021/07/10 02:01:36;;;;;;;;;19.00;18.00;;;;;-149.00;100.00;66333.84;5101199;27;45291;-78
2021/07/10 02:04:02;;;;;;;;;21.00;20.33;;;;;-149.00;100.00;66333.84;5101034;27;45358;-78
2021/07/10 02:06:27;;;;;;;;;21.67;20.67;;;;;-149.00;100.00;66333.84;5100761;27;46622;-78
2021/07/10 02:08:54;;;;;;;;;24.67;22.00;;;;;-149.00;100.00;66333.84;5100696;27;45441;-78
2021/07/10 02:11:20;;;;;;;;;22.00;17.67;;;;;-149.00;100.00;66333.84;5101021;27;45246;-78
2021/07/10 02:13:45;;;;;;;;;18.67;17.33;;;;;-149.00;100.00;66333.84;5100414;27;45339;-79
2021/07/10 02:16:11;;;;;;;;;17.67;17.67;;;;;-149.00;100.00;66333.84;5100676;27;45271;-79
2021/07/10 02:18:37;;;;;;;;;21.00;20.00;;;;;-149.00;100.00;66333.84;5100724;27;45290;-79
2021/07/10 02:21:04;;;;;;;;;19.33;19.00;;;;;-149.00;100.00;66333.84;5100660;27;45338;-79
2021/07/10 02:23:29;;;;;;;;;20.00;18.00;;;;;-149.00;100.00;66333.84;5100349;27;45299;-79
2021/07/10 02:25:55;;;;;;;;;17.00;17.00;;;;;-149.00;100.00;66333.84;5081634;27;48709;-79
2021/07/10 02:28:20;;;;;;;;;21.67;19.67;;;;;-149.00;100.00;66333.84;5079710;27;45380;-78
2021/07/10 02:30:46;;;;;;;;;18.00;17.00;;;;;-149.00;100.00;66333.84;5084640;27;45294;-79
2021/07/10 02:33:11;;;;;;;;;16.67;16.67;;;;;-149.00;100.00;66333.84;5100389;27;45505;-78
2021/07/10 02:35:37;;;;;;;;;20.00;19.00;;;;;-149.00;100.00;66333.84;5100461;27;46250;-78
2021/07/10 02:38:02;;;;;;;;;20.00;20.00;;;;;-149.00;100.00;66333.84;5100211;27;45346;-79
2021/07/10 02:40:28;;;;;;;;;20.00;20.00;;;;;-149.00;100.00;66333.84;5100701;27;45269;-79
2021/07/10 02:42:54;;;;;;;;;19.00;19.00;;;;;-149.00;100.00;66333.84;5100536;27;45412;-78
2021/07/10 02:45:20;;;;;;;;;18.67;16.33;;;;;-149.00;100.00;66333.84;5081984;27;48009;-78
2021/07/10 02:47:46;;;;;;;;;16.33;16.33;;;;;-149.00;100.00;66333.84;5061349;28;45317;-78
2021/07/10 02:50:15;;;;;;;;;20.00;20.00;;;;;-149.00;100.00;66333.84;5059617;28;45340;-78
2021/07/10 02:52:41;;;;;;;;;16.00;15.67;;;;;-149.00;100.00;66333.84;5041553;28;45358;-79
2021/07/10 02:55:07;;;;;;;;;20.67;17.00;;;;;-149.00;100.00;66333.84;5059221;28;46146;-79
2021/07/10 02:57:33;;;;;;;;;18.33;18.00;;;;;-149.00;100.00;66333.84;5061107;28;45816;-78
2021/07/10 03:00:00;;;;;;;;;20.00;19.00;;;;;-149.00;100.00;66333.84;5079953;28;45283;-79
2021/07/10 03:02:25;;;;;;;;;16.67;16.67;;;;;-149.00;100.00;66333.84;5079562;28;45535;-78
2021/07/10 03:04:51;;;;;;;;;17.33;16.33;;;;;-149.00;100.00;66333.84;5061156;28;47247;-78
2021/07/10 03:07:16;;;;;;;;;17.00;16.33;;;;;-149.00;100.00;66333.84;5060863;28;45628;-78
2021/07/10 03:09:42;;;;;;;;;24.00;20.67;;;;;-149.00;100.00;66333.84;5079804;28;45886;-78
2021/07/10 03:12:07;;;;;;;;;21.00;18.33;;;;;-149.00;100.00;66333.84;5060590;28;47368;-78
2021/07/10 03:14:33;;;;;;;;;22.33;21.33;;;;;-149.00;100.00;66333.84;5079295;28;45328;-79
2021/07/10 03:16:58;;;;;;;;;20.00;20.00;;;;;-149.00;100.00;66333.84;5079573;28;45329;-78
2021/07/10 03:19:24;;;;;;;;;20.33;19.33;;;;;-149.00;100.00;66333.84;5079613;28;45310;-79
2021/07/10 03:21:50;;;;;;;;;20.33;17.33;;;;;-149.00;100.00;66333.84;5095890;27;45256;-79
2021/07/10 03:24:15;;;;;;;;;19.00;18.33;;;;;-149.00;100.00;66333.84;5099739;27;45745;-78
2021/07/10 03:26:40;;;;;;;;;18.33;18.33;;;;;-149.00;100.00;66333.84;5099929;27;45331;-78
2021/07/10 03:29:06;;;;;;;;;25.00;20.33;;;;;-149.00;100.00;66333.84;5081717;27;45318;-78
2021/07/10 03:31:31;;;;;;;;;19.33;19.33;;;;;-149.00;100.00;66333.84;5099528;27;45425;-80
2021/07/10 03:33:56;;;;;;;;;16.00;16.00;;;;;-149.00;100.00;66333.84;5099540;27;45298;-79
2021/07/10 03:36:25;;;;;;;;;24.67;23.00;;;;;-149.00;100.00;66333.84;5099697;27;45221;-78
2021/07/10 03:38:51;;;;;;;;;27.00;24.67;;;;;-149.00;100.00;66333.84;5103355;27;45406;-78
2021/07/10 03:41:17;;;;;;;;;23.67;23.67;;;;;-149.00;100.00;66333.84;5103285;27;45301;-78
2021/07/10 03:43:43;;;;;;;;;26.67;24.00;;;;;-149.00;100.00;66333.84;5103146;27;45361;-79
2021/07/10 03:46:08;;;;;;;;;28.67;27.33;;;;;-149.00;100.00;66333.84;5103237;27;45384;-79
2021/07/10 03:48:34;;;;;;;;;29.67;29.00;;;;;-149.00;100.00;66333.84;5103230;27;45487;-78
2021/07/10 03:51:00;;;;;;;;;27.33;26.00;;;;;-149.00;100.00;66333.84;5103233;27;45472;-78
2021/07/10 03:53:26;;;;;;;;;23.33;23.33;;;;;-149.00;100.00;66333.84;5102621;27;46148;-78
2021/07/10 03:55:52;;;;;;;;;25.00;25.00;;;;;-149.00;100.00;66333.84;5102954;27;45353;-78
2021/07/10 03:58:17;;;;;;;;;29.33;28.00;;;;;-149.00;100.00;66333.84;5084776;27;45397;-78
2021/07/10 04:00:42;;;;;;;;;28.67;25.67;;;;;-149.00;100.00;66333.84;5102835;27;45452;-78
2021/07/10 04:03:08;;;;;;;;;23.33;22.67;;;;;-149.00;100.00;66333.84;5084559;27;47925;-78
2021/07/10 04:05:34;;;;;;;;;29.00;26.67;;;;;-149.00;100.00;66333.84;5084419;27;45376;-78
2021/07/10 04:07:59;;;;;;;;;25.67;25.67;;;;;-149.00;100.00;66333.84;5102693;27;45500;-78
2021/07/10 04:10:24;;;;;;;;;20.00;19.00;;;;;-149.00;100.00;66333.84;5102714;27;45448;-78
2021/07/10 04:12:50;;;;;;;;;25.33;22.33;;;;;-149.00;100.00;66333.84;5102500;27;45368;-78
2021/07/10 04:15:17;;;;;;;;;23.67;22.00;;;;;-149.00;100.00;66333.84;5102798;27;45324;-78
2021/07/10 04:17:42;;;;;;;;;21.67;20.33;;;;;-149.00;100.00;66333.84;5102840;27;45363;-79
2021/07/10 04:20:09;;;;;;;;;20.67;20.67;;;;;-149.00;100.00;66333.84;5102351;27;45307;-79
2021/07/10 04:22:36;;;;;;;;;23.00;23.00;;;;;-149.00;100.00;66333.84;5102150;27;47388;-79
2021/07/10 04:25:04;;;;;;;;;23.33;21.33;;;;;-149.00;100.00;66333.84;5102365;27;45476;-78
2021/07/10 04:27:33;;;;;;;;;25.00;25.00;;;;;-149.00;100.00;66333.84;5102756;27;45383;-79
2021/07/10 04:29:59;;;;;;;;;25.67;25.00;;;;;-149.00;100.00;66333.84;5083791;27;46217;-78
2021/07/10 04:32:25;;;;;;;;;21.00;21.00;;;;;-149.00;100.00;66333.84;5102225;27;45419;-78
2021/07/10 04:34:51;;;;;;;;;24.00;23.00;;;;;-149.00;100.00;66333.84;5102175;27;45291;-78
2021/07/10 04:37:16;;;;;;;;;26.00;24.67;;;;;-149.00;100.00;66333.84;5100764;27;45336;-79
2021/07/10 04:39:42;;;;;;;;;22.00;20.33;;;;;-149.00;100.00;66333.84;5102262;27;45571;-79
2021/07/10 04:42:07;;;;;;;;;21.33;21.00;;;;;-149.00;100.00;66333.84;5100863;27;47413;-79
2021/07/10 04:44:33;;;;;;;;;24.00;19.67;;;;;-149.00;100.00;66333.84;5102283;27;45548;-79
2021/07/10 04:46:59;;;;;;;;;21.00;20.33;;;;;-149.00;100.00;66333.84;5102394;27;45217;-78
2021/07/10 04:49:24;;;;;;;;;24.67;22.67;;;;;-149.00;100.00;66333.84;5101918;27;45398;-78
2021/07/10 04:51:49;;;;;;;;;20.33;19.00;;;;;-149.00;100.00;66333.84;5101990;27;46139;-79
2021/07/10 04:54:15;;;;;;;;;21.00;20.67;;;;;-149.00;100.00;66333.84;5101866;27;45338;-79
2021/07/10 04:56:40;;;;;;;;;19.67;19.33;;;;;-149.00;100.00;66333.84;5083699;27;45332;-79
2021/07/10 04:59:06;;;;;;;;;17.67;17.67;;;;;-149.00;100.00;66333.84;5083644;27;47123;-79
2021/07/10 05:01:31;;;;;;;;;20.00;20.00;;;;;-149.00;100.00;66333.84;5101567;27;45567;-80
2021/07/10 05:03:56;;;;;;;;;18.67;18.67;;;;;-149.00;100.00;66333.84;5101961;27;45332;-79
2021/07/10 05:06:22;;;;;;;;;20.67;19.33;;;;;-149.00;100.00;66333.84;5088291;27;45341;-79
2021/07/10 05:08:47;;;;;;;;;17.33;17.00;;;;;-149.00;100.00;66333.84;5081193;28;45566;-78
2021/07/10 05:11:12;;;;;;;;;15.00;15.00;;;;;-149.00;100.00;66333.84;5098612;27;46709;-78
2021/07/10 05:13:38;;;;;;;;;17.67;17.67;;;;;-149.00;100.00;66333.84;5100971;27;45514;-79
2021/07/10 05:16:03;;;;;;;;;17.00;16.00;;;;;-149.00;100.00;66333.84;5101241;27;45518;-77
2021/07/10 05:18:29;;;;;;;;;15.33;15.33;;;;;-149.00;100.00;66333.84;5100926;27;45476;-78
2021/07/10 05:20:54;;;;;;;;;13.00;12.33;;;;;-149.00;100.00;66333.84;5082962;27;47845;-79
2021/07/10 05:23:20;;;;;;;;;13.00;11.00;;;;;-149.00;100.00;66333.84;5101417;27;45327;-78
2021/07/10 05:25:45;;;;;;;;;10.33;10.33;;;;;-149.00;100.00;66333.84;5101294;27;45168;-78
2021/07/10 05:28:11;;;;;;;;;10.33;10.00;;;;;-149.00;100.00;66333.84;5101189;27;45322;-78
2021/07/10 05:30:36;;;;;;;;;11.67;11.33;;;;;-149.00;100.00;66333.84;5101368;27;46407;-77
2021/07/10 05:33:02;;;;;;;;;12.00;11.00;;;;;-149.00;100.00;66333.84;5101356;27;45363;-78
2021/07/10 05:35:28;;;;;;;;;10.00;10.00;;;;;-149.00;100.00;66333.84;5101569;27;45470;-77
2021/07/10 05:37:54;;;;;;;;;9.33;9.33;;;;;-149.00;100.00;66333.84;5092712;27;45338;-79
2021/07/10 05:40:19;;;;;;;;;10.00;10.00;;;;;-149.00;100.00;66333.84;5101323;27;46197;-80
2021/07/10 05:42:48;;;;;;;;;10.33;9.00;;;;;-149.00;100.00;66333.84;5101725;27;45384;-78
2021/07/10 05:45:15;;;;;;;;;10.00;8.00;;;;;-149.00;100.00;66333.84;5101477;27;45284;-80
2021/07/10 05:47:41;;;;;;;;;9.67;9.67;;;;;-149.00;100.00;66333.84;5101549;27;45337;-80
2021/07/10 05:50:07;;;;;;;;;9.33;9.00;;;;;-149.00;100.00;66333.84;5082752;27;47300;-80
2021/07/10 05:52:32;;;;;;;;;11.67;11.67;;;;;-149.00;100.00;66333.84;5082580;27;45362;-81
2021/07/10 05:54:58;;;;;;;;;10.67;10.67;;;;;-149.00;100.00;66333.84;5100605;27;45383;-79
2021/07/10 05:57:23;;;;;;;;;9.67;9.67;;;;;-149.00;100.00;66333.84;5101922;27;45867;-80
2021/07/10 05:59:48;;;;;;;;;6.33;6.33;;;;;-149.00;100.00;66333.84;5103400;27;46131;-79
2021/07/10 06:02:13;;;;;;;;;8.00;8.00;;;;;-149.00;100.00;66333.84;5102323;27;45434;-80
2021/07/10 06:04:39;;;;;;;;;6.33;6.00;;;;;-149.00;100.00;66333.84;5100845;27;45330;-79
2021/07/10 06:07:06;;;;;;;;;11.00;10.00;;;;;-149.00;100.00;66333.84;5102454;27;45290;-79
2021/07/10 06:09:32;;;;;;;;;11.67;11.00;;;;;-149.00;100.00;66333.84;5084494;27;46132;-79
2021/07/10 06:11:57;;;;;;;;;9.33;9.33;;;;;-149.00;100.00;66333.84;5106090;27;45304;-78
2021/07/10 06:14:23;;;;;;;;;10.00;9.00;;;;;-149.00;100.00;66333.84;5088339;27;45370;-79
2021/07/10 06:16:48;;;;;;;;;11.00;11.00;;;;;-149.00;100.00;66333.84;5102013;27;45334;-78
2021/07/10 06:19:13;;;;;;;;;13.00;13.00;;;;;-149.00;100.00;66333.84;5103609;27;46092;-78
2021/07/10 06:21:39;;;;;;;;;10.33;10.33;;;;;-149.00;100.00;66333.84;5102112;27;45293;-78
2021/07/10 06:24:05;;;;;;;;;11.00;11.00;;;;;-149.00;100.00;66333.84;5103269;27;45335;-79
2021/07/10 06:26:30;;;;;;;;;7.67;7.67;;;;;-149.00;100.00;66333.84;5101005;27;45291;-78
2021/07/10 06:28:55;;;;;;;;;11.00;9.33;;;;;-149.00;100.00;66333.84;5101612;27;46252;-78
2021/07/10 06:31:21;;;;;;;;;10.00;10.00;;;;;-149.00;100.00;66333.84;5100796;27;45311;-80
2021/07/10 06:33:46;;;;;;;;;11.33;10.67;;;;;-149.00;100.00;66333.84;5101793;27;45337;-80
2021/07/10 06:36:13;;;;;;;;;9.00;8.67;;;;;-149.00;100.00;66333.84;5082286;27;46249;-79
2021/07/10 06:38:38;;;;;;;;;9.00;9.00;;;;;-149.00;100.00;66333.84;5100435;27;45153;-79
2021/07/10 06:41:04;;;;;;;;;9.67;9.33;;;;;-149.00;100.00;66333.84;5100446;27;45343;-79
2021/07/10 06:43:29;;;;;;;;;8.67;8.67;;;;;-149.00;100.00;66333.84;5082196;27;45428;-79
2021/07/10 06:45:55;;;;;;;;;9.33;9.33;;;;;-149.00;100.00;66333.84;5100431;27;45409;-79
2021/07/10 06:48:20;;;;;;;;;14.67;10.33;;;;;-149.00;100.00;66333.84;5081987;27;48177;-82
2021/07/10 06:50:45;;;;;;;;;11.00;10.00;;;;;-149.00;100.00;66333.84;5099351;27;45354;-78
2021/07/10 06:53:11;;;;;;;;;10.33;10.33;;;;;-149.00;100.00;66333.84;5080038;27;45502;-80
2021/07/10 06:55:37;;;;;;;;;11.00;10.00;;;;;-149.00;100.00;66333.84;5097365;27;45445;-79
2021/07/10 06:58:02;;;;;;;;;9.33;9.33;;;;;-149.00;100.00;66333.84;5078503;27;47972;-81
2021/07/10 07:00:28;;;;;;;;;9.00;9.00;;;;;-149.00;100.00;66333.84;5079162;27;45528;-81
2021/07/10 07:02:53;;;;;;;;;12.00;11.33;;;;;-149.00;100.00;66333.84;5098307;27;45752;-81
2021/07/10 07:05:18;;;;;;;;;9.67;9.33;;;;;-149.00;100.00;66333.84;5097173;27;45780;-81
2021/07/10 07:07:44;;;;;;;;;9.33;9.00;;;;;-149.00;100.00;66333.84;5097658;27;45427;-79
2021/07/10 07:10:11;;;;;;;;;13.00;12.67;;;;;-149.00;100.00;66333.84;5098675;27;45396;-80
2021/07/10 07:12:37;;;;;;;;;9.67;9.67;;;;;-149.00;100.00;66333.84;5100384;27;45285;-81
2021/07/10 07:15:09;;;;;;;;;9.67;8.00;;;;;-149.00;100.00;66333.84;5102052;27;45329;-81
2021/07/10 07:17:35;;;;;;;;;7.67;7.67;;;;;-149.00;100.00;66333.84;5091484;27;48156;-80
2021/07/10 07:20:00;;;;;;;;;8.33;8.33;;;;;-149.00;100.00;66333.84;5101843;27;45440;-83
2021/07/10 07:22:26;;;;;;;;;8.33;8.33;;;;;-149.00;100.00;66333.84;5102007;27;45276;-80
2021/07/10 07:24:51;;;;;;;;;11.00;10.33;;;;;-149.00;100.00;66333.84;5067027;27;46165;-81
2021/07/10 07:27:17;;;;;;;;;10.00;10.00;;;;;-149.00;100.00;66333.84;5098761;27;47046;-81
2021/07/10 07:29:42;;;;;;;;;10.67;10.33;;;;;-149.00;100.00;66333.84;5086276;27;45258;-83
2021/07/10 07:32:08;;;;;;;;;12.33;11.67;;;;;-149.00;100.00;66333.84;5102912;27;45836;-80
2021/07/10 07:34:37;;;;;;;;;9.67;9.00;;;;;-149.00;100.00;66333.84;5101453;27;45319;-80
2021/07/10 07:37:02;;;;;;;;;9.33;9.33;;;;;-149.00;100.00;66333.84;5082091;27;46241;-80
2021/07/10 07:39:27;;;;;;;;;11.33;11.33;;;;;-149.00;100.00;66333.84;5082673;28;45307;-79
2021/07/10 07:41:53;;;;;;;;;8.00;8.00;;;;;-149.00;100.00;66333.84;5082950;28;45466;-81
2021/07/10 07:44:18;;;;;;;;;9.33;9.33;;;;;-149.00;100.00;66333.84;5082778;28;45382;-82
2021/07/10 07:46:44;;;;;;;;;9.00;9.00;;;;;-149.00;100.00;66333.84;5083303;28;45174;-81
2021/07/10 07:49:09;;;;;;;;;9.33;8.33;;;;;-149.00;100.00;66333.84;5064967;28;45329;-82
2021/07/10 07:51:35;;;;;;;;;9.00;9.00;;;;;-149.00;100.00;66333.84;5081161;28;45821;-83
2021/07/10 07:54:00;;;;;;;;;9.00;9.00;;;;;-149.00;100.00;66333.84;5097451;27;45384;-82
2021/07/10 07:56:26;;;;;;;;;9.00;9.00;;;;;-149.00;100.00;66333.84;5099996;27;45968;-82
2021/07/10 07:58:51;;;;;;;;;8.33;7.67;;;;;-149.00;100.00;66333.84;5100994;27;45291;-81
2021/07/10 08:01:17;;;;;;;;;8.33;8.33;;;;;-149.00;100.00;66333.84;5101996;27;45964;-81
2021/07/10 08:03:42;;;;;;;;;8.33;8.33;;;;;-149.00;100.00;66333.84;5083390;27;46046;-81
2021/07/10 08:06:08;;;;;;;;;9.67;9.67;;;;;-149.00;100.00;66333.84;5102859;27;45173;-80
2021/07/10 08:08:36;;;;;;;;;10.00;8.67;;;;;-149.00;100.00;66333.84;5102862;27;45320;-81
2021/07/10 08:11:04;;;;;;;;;6.33;6.33;;;;;-149.00;100.00;66333.84;5103174;27;45352;-81
2021/07/10 08:13:31;;;;;;;;;8.00;8.00;;;;;-149.00;100.00;66333.84;5100241;27;45563;-80
2021/07/10 08:15:57;;;;;;;;;7.33;7.33;;;;;-149.00;100.00;66333.84;5102511;27;46077;-80
2021/07/10 08:18:22;;;;;;;;;8.33;8.00;;;;;-149.00;100.00;66333.84;5102686;27;45333;-79
2021/07/10 08:20:47;;;;;;;;;7.67;7.67;;;;;-149.00;100.00;66333.84;5102217;27;45573;-80
2021/07/10 08:23:13;;;;;;;;;8.33;7.67;;;;;-149.00;100.00;66333.84;5101009;27;45531;-79
2021/07/10 08:25:39;;;;;;;;;8.67;8.67;;;;;-149.00;100.00;66333.84;5101788;27;46181;-80
2021/07/10 08:28:05;;;;;;;;;11.00;10.00;;;;;-149.00;100.00;66333.84;5102637;27;45487;-80
2021/07/10 08:30:30;;;;;;;;;8.00;8.00;;;;;-149.00;100.00;66333.84;5102606;27;45448;-80
2021/07/10 08:32:56;;;;;;;;;8.67;8.67;;;;;-149.00;100.00;66333.84;5103107;27;45291;-78
2021/07/10 08:35:21;;;;;;;;;7.67;7.67;;;;;-149.00;100.00;66333.84;5102825;27;46318;-79
2021/07/10 08:37:47;;;;;;;;;7.00;7.00;;;;;-149.00;100.00;66333.84;5102077;27;45332;-79
2021/07/10 08:40:15;;;;;;;;;8.00;8.00;;;;;-149.00;100.00;66333.84;5097043;27;45434;-80
2021/07/10 08:42:41;;;;;;;;;7.33;7.33;;;;;-149.00;100.00;66333.84;5098385;27;45307;-79
2021/07/10 08:45:09;;;;;;;;;8.33;8.00;;;;;-149.00;100.00;66333.84;5102760;27;46078;-79
2021/07/10 08:47:37;;;;;;;;;8.33;7.00;;;;;-149.00;100.00;66333.84;5093516;27;45476;-80
2021/07/10 08:50:06;;;;;;;;;9.33;8.00;;;;;-149.00;100.00;66333.84;5102082;27;45409;-82
2021/07/10 08:52:35;;;;;;;;;12.00;10.33;;;;;-149.00;100.00;66333.84;5101925;27;45455;-78
2021/07/10 08:55:02;;;;;;;;;10.33;9.33;;;;;-149.00;100.00;66333.84;5101458;27;46446;-79
2021/07/10 08:57:28;;;;;;;;;8.33;8.33;;;;;-149.00;100.00;66333.84;5082576;27;45496;-79
2021/07/10 08:59:53;;;;;;;;;11.00;10.67;;;;;-149.00;100.00;66333.84;5101480;27;45626;-81
2021/07/10 09:02:19;;;;;;;;;10.67;10.67;;;;;-149.00;100.00;66333.84;5090032;27;45473;-81
2021/07/10 09:04:44;;;;;;;;;11.00;10.00;;;;;-149.00;100.00;66333.84;5087294;27;45386;-83
2021/07/10 09:07:09;;;;;;;;;8.00;8.00;;;;;-149.00;100.00;66333.84;5094477;27;45391;-81
2021/07/10 09:09:46;;;;;;;;;9.67;9.00;;;;;-149.00;100.00;66333.84;5078695;27;45275;-81
2021/07/10 09:12:13;;;;;;;;;10.67;10.67;;;;;-149.00;100.00;66333.84;5092050;27;45555;-82
2021/07/10 09:14:40;;;;;;;;;11.00;11.00;;;;;-149.00;100.00;66333.84;5081410;27;47360;-81
2021/07/10 09:17:24;;;;;;;;;8.00;7.00;;;;;-149.00;100.00;66333.84;5078835;28;45540;-80
2021/07/10 09:19:52;;;;;;;;;12.33;12.00;;;;;-149.00;100.00;66333.84;5073603;28;45382;-80
2021/07/10 09:22:30;;;;;;;;;8.00;8.00;;;;;-149.00;100.00;66333.84;5080685;28;45390;-79
2021/07/10 09:24:57;;;;;;;;;10.33;9.33;;;;;-149.00;100.00;66333.84;5079203;28;47322;-79
2021/07/10 09:27:22;;;;;;;;;10.00;10.00;;;;;-149.00;100.00;66333.84;5073840;27;45578;-78
2021/07/10 09:29:49;;;;;;;;;12.67;10.33;;;;;-149.00;100.00;66333.84;5101468;27;45285;-78
2021/07/10 09:32:38;;;;;;;;;12.33;11.33;;;;;-149.00;100.00;66333.84;5093150;27;45561;-80
2021/07/10 09:35:04;;;;;;;;;14.00;13.00;;;;;-149.00;100.00;66333.84;5089762;27;45431;-80
2021/07/10 09:37:29;;;;;;;;;12.67;12.67;;;;;-149.00;100.00;66333.84;5104253;27;45455;-79
2021/07/10 09:40:04;;;;;;;;;12.00;12.00;;;;;-149.00;100.00;66333.84;5112116;27;45315;-80
2021/07/10 09:42:33;;;;;;;;;11.00;8.33;;;;;-149.00;100.00;66333.84;5107890;27;46358;-79
2021/07/10 09:44:58;;;;;;;;;13.00;11.67;;;;;-149.00;100.00;66333.84;5102810;27;45242;-80
2021/07/10 09:47:30;;;;;;;;;11.33;11.33;;;;;-149.00;100.00;66333.84;5103891;27;45457;-81
2021/07/10 09:49:58;;;;;;;;;16.00;13.67;;;;;-149.00;100.00;66333.84;5102439;27;45329;-80
2021/07/10 09:52:28;;;;;;;;;11.33;11.33;;;;;-149.00;100.00;66333.84;5102357;27;45464;-81
2021/07/10 09:55:03;;;;;;;;;12.33;12.00;;;;;-149.00;100.00;66333.84;5102069;27;45300;-80
2021/07/10 09:57:31;;;;;;;;;12.67;12.67;;;;;-149.00;100.00;66333.84;5103097;27;45255;-82
2021/07/10 10:00:13;;;;;;;;;15.00;14.00;;;;;-149.00;100.00;66333.84;5106453;27;45231;-82
2021/07/10 10:02:56;;;;;;;;;15.00;15.00;;;;;-149.00;100.00;66333.84;5104980;27;45271;-84
2021/07/10 10:05:29;;;;;;;;;15.67;14.67;;;;;-149.00;100.00;66333.84;5102253;27;46382;-80
2021/07/10 10:08:02;;;;;;;;;15.67;15.67;;;;;-149.00;100.00;66333.84;5081840;27;45408;-80
2021/07/10 10:10:31;;;;;;;;;16.00;13.67;;;;;-149.00;100.00;66333.84;5100564;27;45250;-80
2021/07/10 10:13:08;;;;;;;;;13.33;13.33;;;;;-149.00;100.00;66333.84;5098031;27;45418;-80
2021/07/10 10:15:37;;;;;;;;;14.67;14.00;;;;;-149.00;100.00;66333.84;5100328;27;45266;-79
2021/07/10 10:18:03;;;;;;;;;15.00;15.00;;;;;-149.00;100.00;66333.84;5100912;27;45236;-80
2021/07/10 10:20:28;;;;;;;;;16.00;15.00;;;;;-149.00;100.00;66333.84;5100760;27;45305;-79
2021/07/10 10:22:54;;;;;;;;;14.00;14.00;;;;;-149.00;100.00;66333.84;5100561;27;45478;-78
2021/07/10 10:25:19;;;;;;;;;15.67;13.33;;;;;-149.00;100.00;66333.84;5100756;27;45462;-80
2021/07/10 10:27:49;;;;;;;;;14.67;14.33;;;;;-149.00;100.00;66333.84;5100781;27;45350;-78
2021/07/10 10:30:16;;;;;;;;;12.67;11.33;;;;;-149.00;100.00;66333.84;5100776;27;45281;-78
2021/07/10 10:32:43;;;;;;;;;13.33;12.00;;;;;-149.00;100.00;66333.84;5082036;27;47465;-79
2021/07/10 10:35:09;;;;;;;;;10.50;10.50;;;;;-149.00;100.00;66333.84;5082036;27;47321;-79
2021/07/10 10:37:37;;;;;;;;;12.33;12.33;;;;;-149.00;100.00;66333.84;5081944;27;45674;-78
2021/07/10 10:40:06;;;;;;;;;14.00;14.00;;;;;-149.00;100.00;66333.84;5100376;27;45335;-78
2021/07/10 10:42:32;;;;;;;;;13.33;12.67;;;;;-149.00;100.00;66333.84;5099945;27;45556;-77
2021/07/10 10:45:00;;;;;;;;;12.00;12.00;;;;;-149.00;100.00;66333.84;5100411;27;45239;-78
2021/07/10 10:47:41;;;;;;;;;13.33;11.00;;;;;-149.00;100.00;66333.84;5081878;27;45323;-80
2021/07/10 10:50:25;;;;;;;;;13.67;13.67;;;;;-149.00;100.00;66333.84;5100165;27;45308;-79
2021/07/10 10:52:53;;;;;;;;;13.00;12.00;;;;;-149.00;100.00;66333.84;5099593;27;45457;-78
2021/07/10 10:55:39;;;;;;;;;11.67;11.33;;;;;-149.00;100.00;66333.84;5100051;27;46171;-80